sensor_id;sensor_type;location;lat;lon;timestamp;pressure;altitude;pressure_sealevel;temperature;humidity
3748;BME280;1889;50.058;8.688;2022-12-07T00:01:47;100374.84;;;8.80;61.21
3748;BME280;1889;50.058;8.688;2022-12-07T00:04:17;100376.69;;;8.64;61.44
3748;BME280;1889;50.058;8.688;2022-12-07T00:06:54;100374.88;;;8.75;60.81
3748;BME280;1889;50.058;8.688;2022-12-07T00:09:19;100378.09;;;8.51;61.59
3748;BME280;1889;50.058;8.688;2022-12-07T00:11:50;100377.25;;;8.41;61.87
3748;BME280;1889;50.058;8.688;2022-12-07T00:14:20;100378.26;;;7.97;63.08
3748;BME280;1889;50.058;8.688;2022-12-07T00:16:51;100380.39;;;8.18;62.72
3748;BME280;1889;50.058;8.688;2022-12-07T00:19:21;100368.52;;;8.30;62.39
3748;BME280;1889;50.058;8.688;2022-12-07T00:21:50;100364.49;;;8.57;61.75
3748;BME280;1889;50.058;8.688;2022-12-07T00:24:19;100365.77;;;8.60;61.67
3748;BME280;1889;50.058;8.688;2022-12-07T00:26:49;100354.78;;;8.70;61.42
3748;BME280;1889;50.058;8.688;2022-12-07T00:29:20;100353.95;;;8.65;61.46
3748;BME280;1889;50.058;8.688;2022-12-07T00:31:50;100352.16;;;8.68;61.41
3748;BME280;1889;50.058;8.688;2022-12-07T00:34:21;100354.33;;;8.75;61.49
3748;BME280;1889;50.058;8.688;2022-12-07T00:36:50;100353.22;;;8.37;62.27
3748;BME280;1889;50.058;8.688;2022-12-07T00:39:20;100350.55;;;8.51;62.17
3748;BME280;1889;50.058;8.688;2022-12-07T00:41:49;100337.83;;;8.53;61.82
3748;BME280;1889;50.058;8.688;2022-12-07T00:44:18;100340.16;;;8.31;62.49
3748;BME280;1889;50.058;8.688;2022-12-07T00:46:48;100334.81;;;8.49;62.32
3748;BME280;1889;50.058;8.688;2022-12-07T00:49:17;100337.77;;;8.64;61.88
3748;BME280;1889;50.058;8.688;2022-12-07T00:51:48;100344.29;;;8.68;61.78
3748;BME280;1889;50.058;8.688;2022-12-07T00:54:18;100340.44;;;8.59;61.93
3748;BME280;1889;50.058;8.688;2022-12-07T00:56:47;100339.19;;;8.46;62.48
3748;BME280;1889;50.058;8.688;2022-12-07T00:59:16;100343.89;;;8.67;61.96
3748;BME280;1889;50.058;8.688;2022-12-07T01:01:46;100341.28;;;8.63;61.94
3748;BME280;1889;50.058;8.688;2022-12-07T01:04:15;100329.35;;;8.81;61.57
3748;BME280;1889;50.058;8.688;2022-12-07T01:06:44;100328.97;;;8.74;61.16
3748;BME280;1889;50.058;8.688;2022-12-07T01:09:14;100335.25;;;8.47;62.03
3748;BME280;1889;50.058;8.688;2022-12-07T01:11:43;100332.04;;;8.72;61.68
3748;BME280;1889;50.058;8.688;2022-12-07T01:14:12;100329.56;;;8.49;62.22
3748;BME280;1889;50.058;8.688;2022-12-07T01:16:41;100338.60;;;8.70;61.51
3748;BME280;1889;50.058;8.688;2022-12-07T01:19:11;100340.30;;;8.77;61.19
3748;BME280;1889;50.058;8.688;2022-12-07T01:21:40;100335.43;;;8.85;61.02
3748;BME280;1889;50.058;8.688;2022-12-07T01:24:10;100333.73;;;8.77;61.33
3748;BME280;1889;50.058;8.688;2022-12-07T01:26:40;100319.03;;;8.54;62.07
3748;BME280;1889;50.058;8.688;2022-12-07T01:29:09;100319.35;;;8.73;61.66
3748;BME280;1889;50.058;8.688;2022-12-07T01:31:38;100311.00;;;8.76;61.64
3748;BME280;1889;50.058;8.688;2022-12-07T01:34:08;100310.72;;;8.57;62.04
3748;BME280;1889;50.058;8.688;2022-12-07T01:36:37;100320.97;;;8.17;62.52
3748;BME280;1889;50.058;8.688;2022-12-07T01:39:08;100322.32;;;8.04;63.20
3748;BME280;1889;50.058;8.688;2022-12-07T01:41:40;100322.25;;;8.20;62.61
3748;BME280;1889;50.058;8.688;2022-12-07T01:46:55;100320.88;;;8.41;62.16
3748;BME280;1889;50.058;8.688;2022-12-07T01:49:41;100325.59;;;8.52;61.97
3748;BME280;1889;50.058;8.688;2022-12-07T01:52:28;100323.41;;;8.52;61.80
3748;BME280;1889;50.058;8.688;2022-12-07T01:54:56;100319.42;;;8.61;61.77
3748;BME280;1889;50.058;8.688;2022-12-07T01:57:26;100328.10;;;8.72;61.30
3748;BME280;1889;50.058;8.688;2022-12-07T01:59:56;100328.25;;;8.49;62.00
3748;BME280;1889;50.058;8.688;2022-12-07T02:02:34;100324.22;;;8.64;61.58
3748;BME280;1889;50.058;8.688;2022-12-07T02:05:06;100323.78;;;8.65;61.60
3748;BME280;1889;50.058;8.688;2022-12-07T02:07:37;100325.73;;;8.20;62.57
3748;BME280;1889;50.058;8.688;2022-12-07T02:10:24;100312.84;;;8.67;61.41
3748;BME280;1889;50.058;8.688;2022-12-07T02:13:04;100308.43;;;8.70;61.14
3748;BME280;1889;50.058;8.688;2022-12-07T02:15:48;100302.47;;;8.47;61.52
3748;BME280;1889;50.058;8.688;2022-12-07T02:21:33;100305.47;;;7.60;64.61
3748;BME280;1889;50.058;8.688;2022-12-07T02:26:42;100304.70;;;8.40;62.21
3748;BME280;1889;50.058;8.688;2022-12-07T02:29:25;100297.12;;;8.62;61.62
3748;BME280;1889;50.058;8.688;2022-12-07T02:32:04;100298.58;;;8.43;61.90
3748;BME280;1889;50.058;8.688;2022-12-07T02:34:42;100297.90;;;7.99;63.06
3748;BME280;1889;50.058;8.688;2022-12-07T02:37:26;100291.11;;;8.43;62.23
3748;BME280;1889;50.058;8.688;2022-12-07T02:39:49;100296.89;;;8.31;62.41
3748;BME280;1889;50.058;8.688;2022-12-07T02:42:23;100298.04;;;8.58;61.83
3748;BME280;1889;50.058;8.688;2022-12-07T02:44:51;100300.23;;;8.57;61.71
3748;BME280;1889;50.058;8.688;2022-12-07T02:47:22;100294.44;;;8.68;61.50
3748;BME280;1889;50.058;8.688;2022-12-07T02:49:53;100289.73;;;8.59;61.87
3748;BME280;1889;50.058;8.688;2022-12-07T02:52:22;100290.60;;;8.59;61.81
3748;BME280;1889;50.058;8.688;2022-12-07T02:54:51;100290.67;;;8.46;62.34
3748;BME280;1889;50.058;8.688;2022-12-07T03:00:10;100283.34;;;8.34;62.62
3748;BME280;1889;50.058;8.688;2022-12-07T03:08:44;100280.02;;;8.68;61.69
3748;BME280;1889;50.058;8.688;2022-12-07T03:11:19;100280.61;;;8.48;61.90
3748;BME280;1889;50.058;8.688;2022-12-07T03:16:28;100284.81;;;8.70;61.69
3748;BME280;1889;50.058;8.688;2022-12-07T03:19:07;100280.00;;;8.71;61.44
3748;BME280;1889;50.058;8.688;2022-12-07T03:21:56;100279.92;;;8.84;61.37
3748;BME280;1889;50.058;8.688;2022-12-07T03:24:26;100276.38;;;8.86;61.30
3748;BME280;1889;50.058;8.688;2022-12-07T03:27:05;100270.77;;;8.77;61.31
3748;BME280;1889;50.058;8.688;2022-12-07T03:29:40;100269.36;;;8.90;60.98
3748;BME280;1889;50.058;8.688;2022-12-07T03:34:53;100266.81;;;8.80;61.21
3748;BME280;1889;50.058;8.688;2022-12-07T03:37:36;100272.69;;;8.57;61.57
3748;BME280;1889;50.058;8.688;2022-12-07T03:42:51;100272.36;;;8.43;62.02
3748;BME280;1889;50.058;8.688;2022-12-07T03:45:23;100271.01;;;8.44;62.04
3748;BME280;1889;50.058;8.688;2022-12-07T03:48:08;100270.94;;;8.56;61.38
3748;BME280;1889;50.058;8.688;2022-12-07T03:51:18;100263.02;;;8.61;61.33
3748;BME280;1889;50.058;8.688;2022-12-07T03:53:40;100262.08;;;8.69;61.15
3748;BME280;1889;50.058;8.688;2022-12-07T03:56:01;100265.25;;;7.78;63.48
3748;BME280;1889;50.058;8.688;2022-12-07T03:58:32;100259.06;;;7.90;63.69
3748;BME280;1889;50.058;8.688;2022-12-07T04:01:02;100256.64;;;8.38;62.51
3748;BME280;1889;50.058;8.688;2022-12-07T04:03:31;100256.52;;;8.53;62.08
3748;BME280;1889;50.058;8.688;2022-12-07T04:06:00;100256.02;;;8.64;61.26
3748;BME280;1889;50.058;8.688;2022-12-07T04:08:30;100260.17;;;8.34;61.81
3748;BME280;1889;50.058;8.688;2022-12-07T04:10:59;100265.27;;;8.54;61.76
3748;BME280;1889;50.058;8.688;2022-12-07T04:13:29;100260.45;;;8.56;61.88
3748;BME280;1889;50.058;8.688;2022-12-07T04:16:00;100262.15;;;8.60;61.55
3748;BME280;1889;50.058;8.688;2022-12-07T04:18:30;100250.77;;;8.63;61.52
3748;BME280;1889;50.058;8.688;2022-12-07T04:20:59;100258.43;;;8.33;62.37
3748;BME280;1889;50.058;8.688;2022-12-07T04:23:28;100253.03;;;8.53;61.78
3748;BME280;1889;50.058;8.688;2022-12-07T04:25:58;100255.06;;;8.74;61.31
3748;BME280;1889;50.058;8.688;2022-12-07T04:28:27;100254.83;;;8.48;61.48
3748;BME280;1889;50.058;8.688;2022-12-07T04:30:56;100251.91;;;8.21;62.80
3748;BME280;1889;50.058;8.688;2022-12-07T04:33:25;100253.20;;;8.27;62.53
3748;BME280;1889;50.058;8.688;2022-12-07T04:35:55;100256.31;;;8.19;62.56
3748;BME280;1889;50.058;8.688;2022-12-07T04:38:24;100254.89;;;8.37;62.53
3748;BME280;1889;50.058;8.688;2022-12-07T04:40:53;100256.14;;;8.48;62.25
3748;BME280;1889;50.058;8.688;2022-12-07T04:43:23;100248.97;;;8.68;61.60
3748;BME280;1889;50.058;8.688;2022-12-07T04:45:52;100257.89;;;8.47;62.04
3748;BME280;1889;50.058;8.688;2022-12-07T04:48:21;100253.94;;;8.50;62.14
3748;BME280;1889;50.058;8.688;2022-12-07T04:50:51;100256.84;;;8.68;61.91
3748;BME280;1889;50.058;8.688;2022-12-07T04:53:20;100251.27;;;8.58;62.16
3748;BME280;1889;50.058;8.688;2022-12-07T04:55:49;100253.77;;;8.70;62.00
3748;BME280;1889;50.058;8.688;2022-12-07T04:58:18;100257.63;;;8.82;61.75
3748;BME280;1889;50.058;8.688;2022-12-07T05:00:48;100250.04;;;8.98;61.33
3748;BME280;1889;50.058;8.688;2022-12-07T05:03:17;100249.55;;;9.03;61.37
3748;BME280;1889;50.058;8.688;2022-12-07T05:05:46;100249.68;;;8.90;61.35
3748;BME280;1889;50.058;8.688;2022-12-07T05:08:16;100247.95;;;8.87;61.71
3748;BME280;1889;50.058;8.688;2022-12-07T05:10:45;100250.56;;;8.89;61.58
3748;BME280;1889;50.058;8.688;2022-12-07T05:13:14;100243.99;;;8.90;61.72
3748;BME280;1889;50.058;8.688;2022-12-07T05:15:44;100247.28;;;9.10;61.18
3748;BME280;1889;50.058;8.688;2022-12-07T05:18:13;100252.94;;;9.16;60.92
3748;BME280;1889;50.058;8.688;2022-12-07T05:20:43;100243.70;;;9.19;60.76
3748;BME280;1889;50.058;8.688;2022-12-07T05:23:13;100249.13;;;8.51;62.14
3748;BME280;1889;50.058;8.688;2022-12-07T05:25:42;100247.05;;;8.90;61.51
3748;BME280;1889;50.058;8.688;2022-12-07T05:28:11;100242.61;;;8.96;61.35
3748;BME280;1889;50.058;8.688;2022-12-07T05:30:41;100238.95;;;9.12;61.10
3748;BME280;1889;50.058;8.688;2022-12-07T05:33:10;100239.38;;;9.15;61.01
3748;BME280;1889;50.058;8.688;2022-12-07T05:35:39;100238.84;;;8.76;61.78
3748;BME280;1889;50.058;8.688;2022-12-07T05:38:09;100233.52;;;8.86;61.75
3748;BME280;1889;50.058;8.688;2022-12-07T05:40:38;100240.14;;;8.79;61.99
3748;BME280;1889;50.058;8.688;2022-12-07T05:43:07;100238.23;;;8.98;61.58
3748;BME280;1889;50.058;8.688;2022-12-07T05:45:36;100243.05;;;8.96;61.63
3748;BME280;1889;50.058;8.688;2022-12-07T05:48:06;100239.90;;;9.07;61.47
3748;BME280;1889;50.058;8.688;2022-12-07T05:50:35;100237.55;;;9.23;60.99
3748;BME280;1889;50.058;8.688;2022-12-07T05:53:04;100240.60;;;9.24;61.02
3748;BME280;1889;50.058;8.688;2022-12-07T05:55:34;100242.97;;;9.06;61.51
3748;BME280;1889;50.058;8.688;2022-12-07T05:58:03;100238.06;;;9.15;61.36
3748;BME280;1889;50.058;8.688;2022-12-07T06:00:50;100242.69;;;8.89;62.02
3748;BME280;1889;50.058;8.688;2022-12-07T06:03:19;100243.78;;;9.10;61.38
3748;BME280;1889;50.058;8.688;2022-12-07T06:05:49;100237.56;;;9.20;61.29
3748;BME280;1889;50.058;8.688;2022-12-07T06:08:18;100234.93;;;9.22;61.40
3748;BME280;1889;50.058;8.688;2022-12-07T06:10:48;100236.23;;;9.23;61.33
3748;BME280;1889;50.058;8.688;2022-12-07T06:13:18;100231.08;;;9.12;61.37
3748;BME280;1889;50.058;8.688;2022-12-07T06:15:49;100236.27;;;9.18;61.45
3748;BME280;1889;50.058;8.688;2022-12-07T06:18:18;100234.48;;;9.24;61.18
3748;BME280;1889;50.058;8.688;2022-12-07T06:20:47;100242.28;;;9.30;61.06
3748;BME280;1889;50.058;8.688;2022-12-07T06:23:17;100240.52;;;9.32;61.03
3748;BME280;1889;50.058;8.688;2022-12-07T06:25:46;100232.13;;;9.37;60.90
3748;BME280;1889;50.058;8.688;2022-12-07T06:28:15;100234.84;;;9.29;61.05
3748;BME280;1889;50.058;8.688;2022-12-07T06:30:45;100240.98;;;9.28;61.08
3748;BME280;1889;50.058;8.688;2022-12-07T06:33:14;100238.31;;;8.89;62.14
3748;BME280;1889;50.058;8.688;2022-12-07T06:35:43;100247.01;;;8.93;62.26
3748;BME280;1889;50.058;8.688;2022-12-07T06:38:13;100245.25;;;8.95;62.42
3748;BME280;1889;50.058;8.688;2022-12-07T06:40:42;100241.59;;;9.11;61.96
3748;BME280;1889;50.058;8.688;2022-12-07T06:43:12;100240.64;;;9.18;61.81
3748;BME280;1889;50.058;8.688;2022-12-07T06:45:41;100240.98;;;9.28;61.42
3748;BME280;1889;50.058;8.688;2022-12-07T06:48:11;100242.17;;;8.97;62.08
3748;BME280;1889;50.058;8.688;2022-12-07T06:50:40;100243.43;;;9.01;62.12
3748;BME280;1889;50.058;8.688;2022-12-07T06:53:09;100240.18;;;9.22;61.53
3748;BME280;1889;50.058;8.688;2022-12-07T06:55:39;100244.57;;;8.74;62.71
3748;BME280;1889;50.058;8.688;2022-12-07T06:58:08;100243.72;;;8.69;62.96
3748;BME280;1889;50.058;8.688;2022-12-07T07:00:37;100239.19;;;8.90;62.53
3748;BME280;1889;50.058;8.688;2022-12-07T07:03:07;100243.78;;;9.10;62.03
3748;BME280;1889;50.058;8.688;2022-12-07T07:05:36;100251.94;;;8.81;62.42
3748;BME280;1889;50.058;8.688;2022-12-07T07:08:05;100250.91;;;8.99;62.35
3748;BME280;1889;50.058;8.688;2022-12-07T07:10:35;100246.92;;;9.02;62.04
3748;BME280;1889;50.058;8.688;2022-12-07T07:13:05;100251.59;;;8.68;62.96
3748;BME280;1889;50.058;8.688;2022-12-07T07:15:35;100251.45;;;8.86;62.67
3748;BME280;1889;50.058;8.688;2022-12-07T07:18:05;100253.05;;;9.02;62.17
3748;BME280;1889;50.058;8.688;2022-12-07T07:20:35;100258.50;;;8.81;62.55
3748;BME280;1889;50.058;8.688;2022-12-07T07:23:05;100262.44;;;8.81;62.64
3748;BME280;1889;50.058;8.688;2022-12-07T07:25:34;100264.57;;;8.86;62.78
3748;BME280;1889;50.058;8.688;2022-12-07T07:28:04;100268.77;;;9.07;62.26
3748;BME280;1889;50.058;8.688;2022-12-07T07:30:33;100270.03;;;9.10;62.14
3748;BME280;1889;50.058;8.688;2022-12-07T07:33:03;100274.11;;;8.98;62.38
3748;BME280;1889;50.058;8.688;2022-12-07T07:35:34;100271.70;;;9.18;62.14
3748;BME280;1889;50.058;8.688;2022-12-07T07:38:03;100277.83;;;9.19;62.07
3748;BME280;1889;50.058;8.688;2022-12-07T07:40:32;100275.39;;;9.43;61.40
3748;BME280;1889;50.058;8.688;2022-12-07T07:43:02;100284.13;;;9.46;61.14
3748;BME280;1889;50.058;8.688;2022-12-07T07:45:31;100277.14;;;9.44;61.33
3748;BME280;1889;50.058;8.688;2022-12-07T07:48:00;100275.83;;;9.44;61.45
3748;BME280;1889;50.058;8.688;2022-12-07T07:50:30;100273.63;;;9.46;61.16
3748;BME280;1889;50.058;8.688;2022-12-07T07:52:59;100272.59;;;9.60;60.76
3748;BME280;1889;50.058;8.688;2022-12-07T07:55:28;100274.84;;;9.55;60.51
3748;BME280;1889;50.058;8.688;2022-12-07T07:57:57;100276.35;;;9.36;61.09
3748;BME280;1889;50.058;8.688;2022-12-07T08:00:27;100275.84;;;9.41;60.95
3748;BME280;1889;50.058;8.688;2022-12-07T08:02:56;100282.11;;;9.29;61.22
3748;BME280;1889;50.058;8.688;2022-12-07T08:05:26;100281.27;;;9.26;61.28
3748;BME280;1889;50.058;8.688;2022-12-07T08:07:55;100282.77;;;9.07;61.83
3748;BME280;1889;50.058;8.688;2022-12-07T08:10:26;100284.55;;;9.04;61.78
3748;BME280;1889;50.058;8.688;2022-12-07T08:12:55;100275.50;;;8.86;62.33
3748;BME280;1889;50.058;8.688;2022-12-07T08:15:41;100278.80;;;8.58;63.40
3748;BME280;1889;50.058;8.688;2022-12-07T08:18:11;100269.88;;;8.82;62.64
3748;BME280;1889;50.058;8.688;2022-12-07T08:20:41;100268.43;;;8.95;62.20
3748;BME280;1889;50.058;8.688;2022-12-07T08:23:11;100276.31;;;8.92;62.27
3748;BME280;1889;50.058;8.688;2022-12-07T08:25:40;100276.00;;;8.80;62.55
3748;BME280;1889;50.058;8.688;2022-12-07T08:28:10;100276.68;;;9.01;62.06
3748;BME280;1889;50.058;8.688;2022-12-07T08:30:39;100278.09;;;8.31;63.79
3748;BME280;1889;50.058;8.688;2022-12-07T08:33:09;100275.86;;;8.41;63.91
3748;BME280;1889;50.058;8.688;2022-12-07T08:35:39;100276.73;;;8.39;64.02
3748;BME280;1889;50.058;8.688;2022-12-07T08:38:08;100280.18;;;8.47;63.67
3748;BME280;1889;50.058;8.688;2022-12-07T08:40:38;100285.42;;;8.50;63.38
3748;BME280;1889;50.058;8.688;2022-12-07T08:43:07;100284.86;;;8.67;63.07
3748;BME280;1889;50.058;8.688;2022-12-07T08:45:36;100280.56;;;8.54;63.42
3748;BME280;1889;50.058;8.688;2022-12-07T08:48:09;100272.92;;;8.83;62.94
3748;BME280;1889;50.058;8.688;2022-12-07T08:50:40;100283.81;;;8.87;62.66
3748;BME280;1889;50.058;8.688;2022-12-07T08:53:09;100281.17;;;8.90;62.86
3748;BME280;1889;50.058;8.688;2022-12-07T08:55:40;100281.97;;;8.99;62.74
3748;BME280;1889;50.058;8.688;2022-12-07T08:58:09;100282.36;;;9.02;62.79
3748;BME280;1889;50.058;8.688;2022-12-07T09:00:38;100283.69;;;9.00;62.75
3748;BME280;1889;50.058;8.688;2022-12-07T09:03:08;100285.86;;;9.02;62.99
3748;BME280;1889;50.058;8.688;2022-12-07T09:05:37;100280.02;;;9.18;62.52
3748;BME280;1889;50.058;8.688;2022-12-07T09:08:07;100286.67;;;9.09;62.66
3748;BME280;1889;50.058;8.688;2022-12-07T09:10:37;100288.89;;;9.08;62.58
3748;BME280;1889;50.058;8.688;2022-12-07T09:13:06;100297.17;;;9.09;62.70
3748;BME280;1889;50.058;8.688;2022-12-07T09:15:35;100290.95;;;9.21;62.28
3748;BME280;1889;50.058;8.688;2022-12-07T09:18:05;100289.70;;;9.16;62.38
3748;BME280;1889;50.058;8.688;2022-12-07T09:20:34;100290.94;;;9.24;62.27
3748;BME280;1889;50.058;8.688;2022-12-07T09:23:05;100293.12;;;8.68;63.17
3748;BME280;1889;50.058;8.688;2022-12-07T09:25:36;100291.16;;;8.98;63.07
3748;BME280;1889;50.058;8.688;2022-12-07T09:28:05;100295.67;;;8.80;63.31
3748;BME280;1889;50.058;8.688;2022-12-07T09:30:35;100292.35;;;9.10;62.88
3748;BME280;1889;50.058;8.688;2022-12-07T09:33:04;100291.31;;;9.28;62.51
3748;BME280;1889;50.058;8.688;2022-12-07T09:35:34;100288.17;;;9.36;62.42
3748;BME280;1889;50.058;8.688;2022-12-07T09:38:03;100288.88;;;9.51;62.14
3748;BME280;1889;50.058;8.688;2022-12-07T09:40:33;100290.95;;;9.64;61.91
3748;BME280;1889;50.058;8.688;2022-12-07T09:43:02;100297.28;;;9.43;61.88
3748;BME280;1889;50.058;8.688;2022-12-07T09:45:36;100295.35;;;9.61;62.04
3748;BME280;1889;50.058;8.688;2022-12-07T09:48:09;100289.91;;;9.76;61.53
3748;BME280;1889;50.058;8.688;2022-12-07T09:50:37;100288.84;;;9.92;61.43
3748;BME280;1889;50.058;8.688;2022-12-07T09:53:09;100289.95;;;10.07;60.86
3748;BME280;1889;50.058;8.688;2022-12-07T09:55:40;100290.61;;;10.27;60.32
3748;BME280;1889;50.058;8.688;2022-12-07T09:58:25;100284.06;;;10.24;60.38
3748;BME280;1889;50.058;8.688;2022-12-07T10:00:57;100285.70;;;10.33;60.37
3748;BME280;1889;50.058;8.688;2022-12-07T10:03:28;100277.22;;;10.44;59.82
3748;BME280;1889;50.058;8.688;2022-12-07T10:05:57;100276.92;;;10.34;59.76
3748;BME280;1889;50.058;8.688;2022-12-07T10:08:27;100284.59;;;9.43;60.28
3748;BME280;1889;50.058;8.688;2022-12-07T10:10:57;100277.89;;;9.56;61.50
3748;BME280;1889;50.058;8.688;2022-12-07T10:13:49;100272.06;;;10.02;60.32
3748;BME280;1889;50.058;8.688;2022-12-07T10:16:38;100265.42;;;10.07;59.94
3748;BME280;1889;50.058;8.688;2022-12-07T10:19:32;100265.64;;;10.26;59.45
3748;BME280;1889;50.058;8.688;2022-12-07T10:22:15;100263.18;;;9.78;60.18
3748;BME280;1889;50.058;8.688;2022-12-07T10:24:47;100267.36;;;9.94;59.69
3748;BME280;1889;50.058;8.688;2022-12-07T10:27:19;100263.22;;;10.08;59.84
3748;BME280;1889;50.058;8.688;2022-12-07T10:29:52;100263.08;;;9.85;59.87
3748;BME280;1889;50.058;8.688;2022-12-07T10:32:31;100257.36;;;9.50;61.87
3748;BME280;1889;50.058;8.688;2022-12-07T10:35:23;100252.52;;;10.23;60.11
3748;BME280;1889;50.058;8.688;2022-12-07T10:37:55;100249.83;;;10.56;58.92
3748;BME280;1889;50.058;8.688;2022-12-07T10:40:35;100247.27;;;10.53;58.81
3748;BME280;1889;50.058;8.688;2022-12-07T10:43:18;100254.95;;;10.65;58.58
3748;BME280;1889;50.058;8.688;2022-12-07T10:51:38;100244.67;;;10.50;57.85
3748;BME280;1889;50.058;8.688;2022-12-07T10:54:16;100243.07;;;10.07;59.02
3748;BME280;1889;50.058;8.688;2022-12-07T10:56:54;100241.27;;;10.43;58.79
3748;BME280;1889;50.058;8.688;2022-12-07T10:59:48;100233.39;;;10.70;58.17
3748;BME280;1889;50.058;8.688;2022-12-07T11:05:05;100228.84;;;11.03;57.64
3748;BME280;1889;50.058;8.688;2022-12-07T11:10:18;100225.58;;;11.15;56.42
3748;BME280;1889;50.058;8.688;2022-12-07T11:13:08;100228.39;;;11.28;57.16
3748;BME280;1889;50.058;8.688;2022-12-07T11:15:55;100217.50;;;11.24;56.87
3748;BME280;1889;50.058;8.688;2022-12-07T11:32:04;100208.09;;;11.55;55.81
3748;BME280;1889;50.058;8.688;2022-12-07T11:37:33;100191.72;;;11.60;55.69
3748;BME280;1889;50.058;8.688;2022-12-07T11:40:05;100188.09;;;11.67;55.37
3748;BME280;1889;50.058;8.688;2022-12-07T11:42:38;100193.36;;;11.67;54.80
3748;BME280;1889;50.058;8.688;2022-12-07T11:47:52;100194.47;;;11.56;54.44
3748;BME280;1889;50.058;8.688;2022-12-07T11:56:03;100182.05;;;11.40;54.37
3748;BME280;1889;50.058;8.688;2022-12-07T12:06:42;100171.73;;;10.31;53.94
3748;BME280;1889;50.058;8.688;2022-12-07T12:09:21;100168.77;;;10.25;54.58
3748;BME280;1889;50.058;8.688;2022-12-07T12:12:23;100165.14;;;10.32;53.63
3748;BME280;1889;50.058;8.688;2022-12-07T12:17:52;100158.55;;;11.07;53.34
3748;BME280;1889;50.058;8.688;2022-12-07T12:23:13;100152.63;;;11.40;52.17
3748;BME280;1889;50.058;8.688;2022-12-07T12:25:58;100154.09;;;11.33;52.21
3748;BME280;1889;50.058;8.688;2022-12-07T12:28:40;100158.28;;;11.21;52.07
3748;BME280;1889;50.058;8.688;2022-12-07T12:31:12;100145.19;;;11.38;51.94
3748;BME280;1889;50.058;8.688;2022-12-07T12:33:50;100149.14;;;11.38;51.63
3748;BME280;1889;50.058;8.688;2022-12-07T12:36:26;100144.19;;;11.44;51.44
3748;BME280;1889;50.058;8.688;2022-12-07T12:47:00;100149.91;;;11.64;50.40
3748;BME280;1889;50.058;8.688;2022-12-07T12:49:38;100140.23;;;11.65;49.92
3748;BME280;1889;50.058;8.688;2022-12-07T12:57:40;100132.66;;;11.69;50.23
3748;BME280;1889;50.058;8.688;2022-12-07T13:00:23;100133.20;;;11.65;50.54
3748;BME280;1889;50.058;8.688;2022-12-07T13:02:55;100122.91;;;11.75;50.64
3748;BME280;1889;50.058;8.688;2022-12-07T13:05:29;100118.15;;;11.91;50.05
3748;BME280;1889;50.058;8.688;2022-12-07T13:08:05;100108.94;;;11.69;50.35
3748;BME280;1889;50.058;8.688;2022-12-07T13:10:37;100112.98;;;11.66;50.83
3748;BME280;1889;50.058;8.688;2022-12-07T13:18:39;100124.05;;;10.98;52.08
3748;BME280;1889;50.058;8.688;2022-12-07T13:26:20;100119.73;;;11.17;52.46
3748;BME280;1889;50.058;8.688;2022-12-07T13:31:34;100120.59;;;11.19;52.86
3748;BME280;1889;50.058;8.688;2022-12-07T13:34:05;100116.55;;;11.22;53.13
3748;BME280;1889;50.058;8.688;2022-12-07T13:36:37;100115.80;;;11.36;52.96
3748;BME280;1889;50.058;8.688;2022-12-07T13:39:21;100116.05;;;11.25;53.28
3748;BME280;1889;50.058;8.688;2022-12-07T13:41:53;100116.31;;;11.34;53.23
3748;BME280;1889;50.058;8.688;2022-12-07T13:44:24;100110.03;;;11.39;53.44
3748;BME280;1889;50.058;8.688;2022-12-07T13:46:57;100114.66;;;11.49;53.47
3748;BME280;1889;50.058;8.688;2022-12-07T13:49:28;100113.27;;;11.52;53.68
3748;BME280;1889;50.058;8.688;2022-12-07T13:55:01;100114.43;;;10.96;53.95
3748;BME280;1889;50.058;8.688;2022-12-07T13:57:21;100120.48;;;10.29;54.46
3748;BME280;1889;50.058;8.688;2022-12-07T13:59:51;100110.91;;;9.97;55.02
3748;BME280;1889;50.058;8.688;2022-12-07T14:02:29;100118.64;;;10.60;54.21
3748;BME280;1889;50.058;8.688;2022-12-07T14:05:23;100113.64;;;10.19;55.27
3748;BME280;1889;50.058;8.688;2022-12-07T14:07:58;100116.61;;;9.97;56.02
3748;BME280;1889;50.058;8.688;2022-12-07T14:10:38;100116.77;;;9.84;56.05
3748;BME280;1889;50.058;8.688;2022-12-07T14:15:56;100118.33;;;10.27;55.64
3748;BME280;1889;50.058;8.688;2022-12-07T14:18:28;100112.45;;;10.09;55.62
3748;BME280;1889;50.058;8.688;2022-12-07T14:21:16;100111.36;;;9.95;56.52
3748;BME280;1889;50.058;8.688;2022-12-07T14:24:35;100105.23;;;10.48;55.46
3748;BME280;1889;50.058;8.688;2022-12-07T14:26:21;100105.26;;;10.47;55.35
3748;BME280;1889;50.058;8.688;2022-12-07T14:28:51;100106.44;;;10.54;54.97
3748;BME280;1889;50.058;8.688;2022-12-07T14:31:23;100106.34;;;10.60;54.50
3748;BME280;1889;50.058;8.688;2022-12-07T14:33:53;100110.23;;;10.38;55.14
3748;BME280;1889;50.058;8.688;2022-12-07T14:36:22;100105.23;;;10.23;55.17
3748;BME280;1889;50.058;8.688;2022-12-07T14:38:51;100114.67;;;9.79;56.11
3748;BME280;1889;50.058;8.688;2022-12-07T14:41:23;100111.98;;;10.11;55.81
3748;BME280;1889;50.058;8.688;2022-12-07T14:44:12;100105.23;;;10.23;55.46
3748;BME280;1889;50.058;8.688;2022-12-07T14:46:41;100104.16;;;10.60;54.56
3748;BME280;1889;50.058;8.688;2022-12-07T14:49:10;100111.11;;;10.62;54.51
3748;BME280;1889;50.058;8.688;2022-12-07T14:51:41;100106.67;;;10.66;54.33
3748;BME280;1889;50.058;8.688;2022-12-07T14:54:16;100110.07;;;9.93;56.01
3748;BME280;1889;50.058;8.688;2022-12-07T14:56:47;100111.98;;;9.52;56.93
3748;BME280;1889;50.058;8.688;2022-12-07T14:59:19;100110.98;;;9.61;57.29
3748;BME280;1889;50.058;8.688;2022-12-07T15:01:49;100111.34;;;9.97;56.18
3748;BME280;1889;50.058;8.688;2022-12-07T15:04:18;100106.24;;;9.86;56.77
3748;BME280;1889;50.058;8.688;2022-12-07T15:07:01;100106.94;;;9.37;58.00
3748;BME280;1889;50.058;8.688;2022-12-07T15:09:31;100112.55;;;9.41;58.32
3748;BME280;1889;50.058;8.688;2022-12-07T15:12:00;100112.95;;;9.11;59.72
3748;BME280;1889;50.058;8.688;2022-12-07T15:14:30;100111.79;;;9.33;59.37
3748;BME280;1889;50.058;8.688;2022-12-07T15:17:00;100113.20;;;9.26;60.38
3748;BME280;1889;50.058;8.688;2022-12-07T15:19:29;100113.95;;;9.35;60.43
3748;BME280;1889;50.058;8.688;2022-12-07T15:21:58;100104.27;;;9.72;59.29
3748;BME280;1889;50.058;8.688;2022-12-07T15:24:28;100105.29;;;9.62;59.48
3748;BME280;1889;50.058;8.688;2022-12-07T15:26:58;100105.70;;;9.64;59.35
3748;BME280;1889;50.058;8.688;2022-12-07T15:29:27;100106.84;;;9.75;59.20
3748;BME280;1889;50.058;8.688;2022-12-07T15:31:57;100105.09;;;9.74;59.21
3748;BME280;1889;50.058;8.688;2022-12-07T15:34:27;100101.56;;;9.76;59.58